Anita, Iowa
Current Conditions -  °F | °C
As of 7:15 PM on Friday 31 Oct 2014 (Local Time) from KAIO Reporting Station
Clear Clear  
Wind Chill: 32°   Ceiling: Unl
Heat Index: 32°   Visibility: 10mi
Dew Point: 19°   Wind: 0mph
Humidity: 60%   Direction: NA
Pressure: 30.46"   Gusts: NA
Location:  41.45°N, 94.76°W
Report Text: KAIO 010015Z AUTO 00000KT 10SM CLR M00/M07 A3046 RMK AO2
Loading
Personal Weather Stations






























Interactive Weather Map
Tropical Storm Tracking
New forecast layout! Learn more

10-Day Weather Forecast

Advertisements
Track Severe Weather on mobile